THUNDERSTORM

Not for real navigation. The accuracy of this data is not assured See disclaimer for more information



ICAO NAME COUNTRY WIND Kt GUST Kt VIS m TEMP/DEW C BARO METAR
PAKW Klawock, Klawock Airport AK United States 0 0 400 3/2 30.19 PAKW 271253Z AUTO 00000KT 0.25SM FG VV001 03/02 A3019 RMK AO2 SLP224 T00330017 TS $
KAFK Nebraska City, Nebraska City M NE United States 13 0 1600 14/14 29.89 KAFK 271315Z AUTO 29013KT 1 0.75SM TSRA BKN009 BKN025 OVC060 14/14 A2989 RMK AO2 LTG NOOP ALQS P0060
VECC Calcutta / Dum Dum India 10 0 2200 32/26 29.56 VECC 271300Z 19010KT 2200 HZ SCT018 FEW030CB BKN090 32/26 Q1001 TEMPO TL1430 1500 TSRA
DAAT Tamanrasset / Aguenna Algeria 14 0 4000 32/4 30.21 DAAT 271300Z 12014KT 4000 TS HZ FEW040CB SCT046 32/04 Q1023
VEIM Imphal Tulihal India 5 0 4000 25/22 29.77 VEIM 271300Z 35005KT 4000 TS BR FEW008 SCT018 FEW025CB OVC090 25/22 Q1008 TEMPO 3000 -TSRA

Show more